Hartford, Connecticut
Traffic Map
Current Weather Conditions
Hartford, Connecticut
Overcast
Overcast
17°
Feels Like: 17°
Wind Chill: 17° Ceiling: 8000
Heat Index: 17° Visibility: 10mi
Dew Point: 12° Wind: 0mph
Humidity: 75% Direction: ° ()
Pressure: 29.88in Gusts: 0mph
Raw Report DataKHFD 240553Z 00000KT 10SM FEW065 OVC080 17/12 A2988 RMK AO2 RAE41 SLP119 P0000 60005 T01670122 10222 20156 58007 $
Traffic Incident Summary
Active as of:
Severity:
Category:
InformationThere was an issue retrieving the traffic information for this location. Please try a different location or try again shortly.
Advertisements
Track Severe Weather on mobile